Time,TemperatureF,DewpointF,PressureIn,WindDirection,WindDirectionDegrees,WindSpeedMPH,WindSpeedGustMPH,Humidity,HourlyPrecipIn,Conditions,Clouds,dailyrainin,SoftwareType,DateUTC
2013-01-09 00:03:00,29.4,21.8,30.29,SSW,204,3.0,5.0,73,0.00,,,-99.99,Weather View 32 v70,2013-01-09 05:03:00,
2013-01-09 00:08:00,29.4,21.8,30.29,SSW,204,1.0,5.0,73,0.00,,,-99.99,Weather View 32 v70,2013-01-09 05:08:00,
2013-01-09 00:13:00,29.5,21.9,30.28,SSW,203,2.0,5.0,73,0.00,,,-99.99,Weather View 32 v70,2013-01-09 05:13:00,
2013-01-09 00:18:00,29.6,21.7,30.28,SSW,204,1.0,5.0,72,0.00,,,-99.99,Weather View 32 v70,2013-01-09 05:18:00,
2013-01-09 00:23:00,29.6,21.7,30.28,SSW,204,2.0,5.0,72,0.00,,,-99.99,Weather View 32 v70,2013-01-09 05:23:00,
2013-01-09 00:28:00,29.6,21.7,30.28,SSW,204,0.0,5.0,72,0.00,,,-99.99,Weather View 32 v70,2013-01-09 05:28:00,
2013-01-09 00:33:00,29.5,21.6,30.28,SSW,204,0.0,5.0,72,0.00,,,-99.99,Weather View 32 v70,2013-01-09 05:33:00,
2013-01-09 00:38:00,29.2,21.0,30.28,SSW,204,2.0,5.0,71,0.00,,,-99.99,Weather View 32 v70,2013-01-09 05:38:00,
2013-01-09 00:48:00,28.7,20.8,30.28,SSW,203,0.0,5.0,72,0.00,,,-99.99,Weather View 32 v70,2013-01-09 05:48:00,
2013-01-09 00:53:00,28.4,20.5,30.28,SSW,204,0.0,5.0,72,0.00,,,-99.99,Weather View 32 v70,2013-01-09 05:53:00,
2013-01-09 00:58:00,28.3,20.4,30.28,SSW,204,0.0,5.0,72,0.00,,,-99.99,Weather View 32 v70,2013-01-09 05:58:00,
2013-01-09 01:03:00,28.0,20.1,30.28,SSW,203,1.0,4.0,72,0.00,,,-99.99,Weather View 32 v70,2013-01-09 06:03:00,
2013-01-09 01:08:00,27.6,19.8,30.28,SSW,204,1.0,4.0,72,0.00,,,-99.99,Weather View 32 v70,2013-01-09 06:08:00,
2013-01-09 01:18:00,26.9,19.4,30.28,SSW,203,0.0,3.0,73,0.00,,,-99.99,Weather View 32 v70,2013-01-09 06:18:00,
2013-01-09 01:23:00,26.8,19.3,30.27,SSW,204,1.0,3.0,73,0.00,,,-99.99,Weather View 32 v70,2013-01-09 06:23:00,
2013-01-09 01:28:00,26.7,19.5,30.27,SSW,203,0.0,3.0,74,0.00,,,-99.99,Weather View 32 v70,2013-01-09 06:28:00,
2013-01-09 01:33:00,26.6,19.4,30.27,SSW,204,0.0,3.0,74,0.00,,,-99.99,Weather View 32 v70,2013-01-09 06:33:00,
2013-01-09 01:43:00,26.4,19.2,30.27,SSW,204,1.0,3.0,74,0.00,,,-99.99,Weather View 32 v70,2013-01-09 06:43:00,
2013-01-09 01:48:00,26.1,18.9,30.27,SSW,204,3.0,4.0,74,0.00,,,-99.99,Weather View 32 v70,2013-01-09 06:48:00,
2013-01-09 01:53:00,26.0,18.9,30.27,SSW,204,1.0,4.0,74,0.00,,,-99.99,Weather View 32 v70,2013-01-09 06:53:00,
2013-01-09 01:58:00,26.1,19.3,30.27,SSW,203,1.0,4.0,75,0.00,,,-99.99,Weather View 32 v70,2013-01-09 06:58:00,
2013-01-09 02:03:00,25.9,19.1,30.27,SSW,204,0.0,4.0,75,0.00,,,-99.99,Weather View 32 v70,2013-01-09 07:03:00,
2013-01-09 02:08:00,25.9,19.1,30.27,ESE,109,2.0,4.0,75,0.00,,,-99.99,Weather View 32 v70,2013-01-09 07:08:00,
2013-01-09 02:18:00,25.8,19.0,30.27,ESE,109,1.0,4.0,75,0.00,,,-99.99,Weather View 32 v70,2013-01-09 07:18:00,
2013-01-09 02:23:00,25.4,18.6,30.27,ESE,123,4.0,4.0,75,0.00,,,-99.99,Weather View 32 v70,2013-01-09 07:23:00,
2013-01-09 02:28:00,25.9,19.7,30.26,SE,146,1.0,5.0,77,0.00,,,-99.99,Weather View 32 v70,2013-01-09 07:28:00,
2013-01-09 02:37:00,26.4,19.9,30.26,SE,146,1.0,5.0,76,0.00,,,-99.99,Weather View 32 v70,2013-01-09 07:37:00,
2013-01-09 02:43:00,27.0,20.8,30.25,SE,146,2.0,5.0,77,0.00,,,-99.99,Weather View 32 v70,2013-01-09 07:43:00,
2013-01-09 02:48:00,27.3,21.3,30.26,SE,146,0.0,5.0,78,0.00,,,-99.99,Weather View 32 v70,2013-01-09 07:48:00,
2013-01-09 02:53:00,27.6,21.3,30.26,SSW,206,4.0,5.0,77,0.00,,,-99.99,Weather View 32 v70,2013-01-09 07:53:00,
2013-01-09 02:58:00,27.8,21.5,30.26,SSW,208,3.0,5.0,77,0.00,,,-99.99,Weather View 32 v70,2013-01-09 07:58:00,
2013-01-09 03:08:00,28.3,22.3,30.25,South,176,3.0,5.0,78,0.00,,,-99.99,Weather View 32 v70,2013-01-09 08:08:00,
2013-01-09 03:13:00,28.7,22.7,30.24,South,174,1.0,5.0,78,0.00,,,-99.99,Weather View 32 v70,2013-01-09 08:13:00,
2013-01-09 03:18:00,29.0,23.0,30.24,South,174,3.0,5.0,78,0.00,,,-99.99,Weather View 32 v70,2013-01-09 08:18:00,
2013-01-09 03:23:00,29.2,23.2,30.24,South,177,3.0,7.0,78,0.00,,,-99.99,Weather View 32 v70,2013-01-09 08:23:00,
2013-01-09 03:33:00,29.9,23.9,30.23,SSE,168,4.0,7.0,78,0.00,,,-99.99,Weather View 32 v70,2013-01-09 08:33:00,
2013-01-09 03:38:00,30.2,24.2,30.23,South,187,5.0,9.0,78,0.00,,,-99.99,Weather View 32 v70,2013-01-09 08:38:00,
2013-01-09 03:43:00,30.5,24.5,30.23,SSE,168,4.0,9.0,78,0.00,,,-99.99,Weather View 32 v70,2013-01-09 08:43:00,
2013-01-09 03:48:00,30.7,24.7,30.23,SSE,165,6.0,9.0,78,0.00,,,-99.99,Weather View 32 v70,2013-01-09 08:48:00,
2013-01-09 03:53:00,30.9,24.8,30.23,SSW,193,4.0,9.0,78,0.00,,,-99.99,Weather View 32 v70,2013-01-09 08:53:00,
2013-01-09 04:03:00,31.2,24.8,30.22,SSE,158,5.0,9.0,77,0.00,,,-99.99,Weather View 32 v70,2013-01-09 09:03:00,
2013-01-09 04:08:00,31.4,25.0,30.22,SSE,161,4.0,9.0,77,0.00,,,-99.99,Weather View 32 v70,2013-01-09 09:08:00,
2013-01-09 04:13:00,31.6,25.2,30.22,SSE,160,3.0,9.0,77,0.00,,,-99.99,Weather View 32 v70,2013-01-09 09:13:00,
2013-01-09 04:18:00,31.7,25.3,30.21,SSE,164,4.0,9.0,77,0.00,,,-99.99,Weather View 32 v70,2013-01-09 09:18:00,
2013-01-09 04:28:00,31.9,25.2,30.21,South,177,5.0,9.0,76,0.00,,,-99.99,Weather View 32 v70,2013-01-09 09:28:00,
2013-01-09 04:33:00,32.0,25.3,30.21,South,188,4.0,9.0,76,0.00,,,-99.99,Weather View 32 v70,2013-01-09 09:33:00,
2013-01-09 04:38:00,32.2,25.5,30.21,SSE,165,4.0,8.0,76,0.00,,,-99.99,Weather View 32 v70,2013-01-09 09:38:00,
2013-01-09 04:43:00,32.3,25.6,30.20,South,184,3.0,8.0,76,0.00,,,-99.99,Weather View 32 v70,2013-01-09 09:43:00,
2013-01-09 04:48:00,32.5,25.5,30.20,South,182,5.0,8.0,75,0.00,,,-99.99,Weather View 32 v70,2013-01-09 09:48:00,
2013-01-09 04:53:00,32.7,25.6,30.20,SSE,166,6.0,9.0,75,0.00,,,-99.99,Weather View 32 v70,2013-01-09 09:53:00,
2013-01-09 05:03:00,33.1,26.0,30.19,South,170,6.0,11.0,75,0.00,,,-99.99,Weather View 32 v70,2013-01-09 10:03:00,
2013-01-09 05:08:00,33.3,26.2,30.19,SSE,167,6.0,11.0,75,0.00,,,-99.99,Weather View 32 v70,2013-01-09 10:08:00,
2013-01-09 05:13:00,33.3,25.9,30.19,South,178,4.0,11.0,74,0.00,,,-99.99,Weather View 32 v70,2013-01-09 10:13:00,
2013-01-09 05:23:00,33.6,25.9,30.19,South,173,5.0,11.0,73,0.00,,,-99.99,Weather View 32 v70,2013-01-09 10:23:00,
2013-01-09 05:28:00,33.6,25.9,30.19,South,179,8.0,11.0,73,0.00,,,-99.99,Weather View 32 v70,2013-01-09 10:28:00,
2013-01-09 05:33:00,33.8,26.1,30.18,South,188,4.0,11.0,73,0.00,,,-99.99,Weather View 32 v70,2013-01-09 10:33:00,
2013-01-09 05:38:00,33.8,25.7,30.18,SSW,208,5.0,11.0,72,0.00,,,-99.99,Weather View 32 v70,2013-01-09 10:38:00,
2013-01-09 05:48:00,34.0,25.9,30.19,South,177,6.0,11.0,72,0.00,,,-99.99,Weather View 32 v70,2013-01-09 10:48:00,
2013-01-09 05:58:00,34.3,25.9,30.18,South,188,9.0,11.0,71,0.00,,,-99.99,Weather View 32 v70,2013-01-09 10:58:00,
2013-01-09 06:03:00,34.4,26.0,30.18,SSW,211,6.0,13.0,71,0.00,,,-99.99,Weather View 32 v70,2013-01-09 11:03:00,
2013-01-09 06:08:00,34.5,25.7,30.19,SSW,210,4.0,13.0,70,0.00,,,-99.99,Weather View 32 v70,2013-01-09 11:08:00,
2013-01-09 06:13:00,34.5,25.7,30.19,SW,220,4.0,13.0,70,0.00,,,-99.99,Weather View 32 v70,2013-01-09 11:13:00,
2013-01-09 06:23:00,34.6,25.8,30.18,SSW,196,3.0,13.0,70,0.00,,,-99.99,Weather View 32 v70,2013-01-09 11:23:00,
2013-01-09 06:28:00,34.5,25.7,30.18,South,176,7.0,13.0,70,0.00,,,-99.99,Weather View 32 v70,2013-01-09 11:28:00,
2013-01-09 06:38:00,34.3,25.2,30.18,South,191,5.0,13.0,69,0.00,,,-99.99,Weather View 32 v70,2013-01-09 11:38:00,
2013-01-09 06:43:00,34.3,25.2,30.17,South,169,4.0,13.0,69,0.00,,,-99.99,Weather View 32 v70,2013-01-09 11:43:00,
2013-01-09 06:48:00,34.3,25.2,30.17,SSE,152,6.0,13.0,69,0.00,,,-99.99,Weather View 32 v70,2013-01-09 11:48:00,
2013-01-09 06:53:00,34.4,25.3,30.17,SSW,211,6.0,13.0,69,0.00,,,-99.99,Weather View 32 v70,2013-01-09 11:53:00,
2013-01-09 07:03:00,34.5,25.4,30.16,South,184,3.0,10.0,69,0.00,,,-99.99,Weather View 32 v70,2013-01-09 12:03:00,
2013-01-09 07:08:00,34.6,25.5,30.15,SSW,204,4.0,10.0,69,0.00,,,-99.99,Weather View 32 v70,2013-01-09 12:08:00,
2013-01-09 07:13:00,34.6,25.5,30.14,SSE,161,5.0,11.0,69,0.00,,,-99.99,Weather View 32 v70,2013-01-09 12:13:00,
2013-01-09 07:18:00,34.9,25.8,30.14,SSE,149,5.0,11.0,69,0.00,,,-99.99,Weather View 32 v70,2013-01-09 12:18:00,
2013-01-09 07:28:00,35.1,25.9,30.14,South,172,5.0,11.0,69,0.00,,,-99.99,Weather View 32 v70,2013-01-09 12:28:00,
2013-01-09 07:33:00,35.2,26.0,30.14,South,175,6.0,11.0,69,0.00,,,-99.99,Weather View 32 v70,2013-01-09 12:33:00,
2013-01-09 07:38:00,35.5,26.0,30.14,South,184,7.0,11.0,68,0.00,,,-99.99,Weather View 32 v70,2013-01-09 12:38:00,
2013-01-09 07:43:00,35.7,26.2,30.14,South,181,6.0,11.0,68,0.00,,,-99.99,Weather View 32 v70,2013-01-09 12:43:00,
2013-01-09 07:48:00,35.9,26.0,30.14,South,189,5.0,11.0,67,0.00,,,-99.99,Weather View 32 v70,2013-01-09 12:48:00,
2013-01-09 07:58:00,36.1,26.2,30.14,SSW,192,4.0,12.0,67,0.00,,,-99.99,Weather View 32 v70,2013-01-09 12:58:00,
2013-01-09 08:03:00,36.1,26.2,30.13,South,184,9.0,12.0,67,0.00,,,-99.99,Weather View 32 v70,2013-01-09 13:03:00,
2013-01-09 08:08:00,36.2,25.9,30.12,South,178,6.0,12.0,66,0.00,,,-99.99,Weather View 32 v70,2013-01-09 13:08:00,
2013-01-09 08:13:00,36.4,26.1,30.12,South,184,6.0,12.0,66,0.00,,,-99.99,Weather View 32 v70,2013-01-09 13:13:00,
2013-01-09 08:23:00,36.7,26.4,30.11,South,187,7.0,13.0,66,0.00,,,-99.99,Weather View 32 v70,2013-01-09 13:23:00,
2013-01-09 08:28:00,36.9,26.6,30.12,SSW,193,9.0,13.0,66,0.00,,,-99.99,Weather View 32 v70,2013-01-09 13:28:00,
2013-01-09 08:33:00,37.1,26.4,30.12,SSW,199,3.0,13.0,65,0.00,,,-99.99,Weather View 32 v70,2013-01-09 13:33:00,
2013-01-09 08:38:00,37.2,26.5,30.11,SSW,208,9.0,13.0,65,0.00,,,-99.99,Weather View 32 v70,2013-01-09 13:38:00,
2013-01-09 08:48:00,37.5,26.8,30.12,SSW,212,8.0,13.0,65,0.00,,,-99.99,Weather View 32 v70,2013-01-09 13:48:00,
2013-01-09 08:58:00,37.9,27.2,30.12,SSW,201,5.0,15.0,65,0.00,,,-99.99,Weather View 32 v70,2013-01-09 13:58:00,
2013-01-09 09:03:00,38.3,27.2,30.12,SW,218,7.0,15.0,64,0.00,,,-99.99,Weather View 32 v70,2013-01-09 14:03:00,
2013-01-09 09:08:00,38.5,27.4,30.12,SW,215,8.0,15.0,64,0.00,,,-99.99,Weather View 32 v70,2013-01-09 14:08:00,
2013-01-09 09:13:00,38.9,27.4,30.11,SSE,164,5.0,15.0,63,0.00,,,-99.99,Weather View 32 v70,2013-01-09 14:13:00,
2013-01-09 09:23:00,39.5,27.5,30.12,SW,218,11.0,19.0,62,0.00,,,-99.99,Weather View 32 v70,2013-01-09 14:23:00,
2013-01-09 09:33:00,39.7,27.7,30.11,SW,228,12.0,19.0,62,0.00,,,-99.99,Weather View 32 v70,2013-01-09 14:33:00,
2013-01-09 09:38:00,39.8,27.8,30.12,SW,224,7.0,19.0,62,0.00,,,-99.99,Weather View 32 v70,2013-01-09 14:38:00,
2013-01-09 09:43:00,39.7,27.7,30.11,SSW,205,11.0,23.0,62,0.00,,,-99.99,Weather View 32 v70,2013-01-09 14:43:00,
2013-01-09 09:48:00,39.8,27.8,30.10,SW,220,11.0,23.0,62,0.00,,,-99.99,Weather View 32 v70,2013-01-09 14:48:00,
2013-01-09 09:58:00,40.3,28.3,30.08,SSW,197,5.0,23.0,62,0.00,,,-99.99,Weather View 32 v70,2013-01-09 14:58:00,
2013-01-09 10:08:00,40.7,28.7,30.09,SW,226,14.0,23.0,62,0.00,,,-99.99,Weather View 32 v70,2013-01-09 15:08:00,
2013-01-09 10:13:00,40.8,28.4,30.09,South,183,8.0,23.0,61,0.00,,,-99.99,Weather View 32 v70,2013-01-09 15:13:00,
2013-01-09 10:23:00,40.7,28.7,30.08,SSW,196,5.0,23.0,62,0.00,,,-99.99,Weather View 32 v70,2013-01-09 15:23:00,
2013-01-09 10:28:00,40.6,28.6,30.08,SSW,199,6.0,23.0,62,0.00,,,-99.99,Weather View 32 v70,2013-01-09 15:28:00,
2013-01-09 10:38:00,40.4,28.8,30.08,SW,214,9.0,23.0,63,0.00,,,-99.99,Weather View 32 v70,2013-01-09 15:38:00,
2013-01-09 10:43:00,40.5,28.9,30.08,SW,217,12.0,23.0,63,0.00,,,-99.99,Weather View 32 v70,2013-01-09 15:43:00,
2013-01-09 10:48:00,40.8,29.6,30.08,SW,218,8.0,19.0,64,0.00,,,-99.99,Weather View 32 v70,2013-01-09 15:48:00,
2013-01-09 10:53:00,41.1,29.8,30.07,SSW,211,9.0,19.0,64,0.00,,,-99.99,Weather View 32 v70,2013-01-09 15:53:00,
2013-01-09 10:58:00,41.5,30.2,30.07,SW,219,12.0,19.0,64,0.00,,,-99.99,Weather View 32 v70,2013-01-09 15:58:00,
2013-01-09 11:08:00,42.4,31.1,30.07,WSW,239,8.0,17.0,64,0.00,,,-99.99,Weather View 32 v70,2013-01-09 16:08:00,
2013-01-09 11:13:00,43.2,31.4,30.07,SW,230,7.0,16.0,63,0.00,,,-99.99,Weather View 32 v70,2013-01-09 16:13:00,
2013-01-09 11:18:00,43.5,31.3,30.06,SW,235,7.0,16.0,62,0.00,,,-99.99,Weather View 32 v70,2013-01-09 16:18:00,
2013-01-09 11:28:00,43.6,31.4,30.06,SW,219,9.0,16.0,62,0.00,,,-99.99,Weather View 32 v70,2013-01-09 16:28:00,
2013-01-09 11:33:00,43.6,31.4,30.06,SW,230,12.0,16.0,62,0.00,,,-99.99,Weather View 32 v70,2013-01-09 16:33:00,
2013-01-09 11:38:00,43.6,31.8,30.06,SW,215,6.0,16.0,63,0.00,,,-99.99,Weather View 32 v70,2013-01-09 16:38:00,
2013-01-09 11:48:00,43.6,31.8,30.05,SW,219,12.0,19.0,63,0.00,,,-99.99,Weather View 32 v70,2013-01-09 16:48:00,
2013-01-09 11:53:00,43.8,32.4,30.04,SW,217,9.0,22.0,64,0.00,,,-99.99,Weather View 32 v70,2013-01-09 16:53:00,
2013-01-09 11:58:00,44.0,32.6,30.04,SW,224,10.0,22.0,64,0.00,,,-99.99,Weather View 32 v70,2013-01-09 16:58:00,
2013-01-09 12:08:00,44.1,33.1,30.03,WSW,243,12.0,22.0,65,0.00,,,-99.99,Weather View 32 v70,2013-01-09 17:08:00,
2013-01-09 12:13:00,44.5,33.5,30.03,SW,223,17.0,23.0,65,0.00,,,-99.99,Weather View 32 v70,2013-01-09 17:13:00,
2013-01-09 12:18:00,44.9,33.4,30.03,SW,229,18.0,23.0,64,0.00,,,-99.99,Weather View 32 v70,2013-01-09 17:18:00,
2013-01-09 12:28:00,45.0,33.1,30.04,SW,217,15.0,28.0,63,0.00,,,-99.99,Weather View 32 v70,2013-01-09 17:28:00,
2013-01-09 12:33:00,44.8,33.3,30.03,WSW,253,8.0,28.0,64,0.00,,,-99.99,Weather View 32 v70,2013-01-09 17:33:00,
2013-01-09 12:38:00,44.5,33.1,30.03,SW,225,17.0,28.0,64,0.00,,,-99.99,Weather View 32 v70,2013-01-09 17:38:00,
2013-01-09 12:43:00,44.4,33.0,30.03,SW,231,12.0,29.0,64,0.00,,,-99.99,Weather View 32 v70,2013-01-09 17:43:00,
2013-01-09 12:53:00,44.3,32.9,30.03,SW,222,14.0,33.0,64,0.00,,,-99.99,Weather View 32 v70,2013-01-09 17:53:00,
2013-01-09 12:58:00,44.4,33.0,30.02,SW,233,16.0,33.0,64,0.00,,,-99.99,Weather View 32 v70,2013-01-09 17:58:00,
2013-01-09 13:03:00,44.5,33.1,30.03,WSW,241,25.0,33.0,64,0.00,,,-99.99,Weather View 32 v70,2013-01-09 18:03:00,
2013-01-09 13:13:00,44.7,32.9,30.03,SW,228,17.0,37.0,63,0.00,,,-99.99,Weather View 32 v70,2013-01-09 18:13:00,
2013-01-09 13:18:00,44.7,32.9,30.03,SW,229,17.0,37.0,63,0.00,,,-99.99,Weather View 32 v70,2013-01-09 18:18:00,
2013-01-09 13:23:00,44.6,33.2,30.03,WSW,251,15.0,37.0,64,0.00,,,-99.99,Weather View 32 v70,2013-01-09 18:23:00,
2013-01-09 13:28:00,44.3,32.9,30.03,WSW,250,10.0,37.0,64,0.00,,,-99.99,Weather View 32 v70,2013-01-09 18:28:00,
2013-01-09 13:38:00,44.3,33.3,30.03,SW,236,11.0,37.0,65,0.00,,,-99.99,Weather View 32 v70,2013-01-09 18:38:00,
2013-01-09 13:43:00,44.3,33.3,30.03,SW,236,11.0,37.0,65,0.00,,,-99.99,Weather View 32 v70,2013-01-09 18:43:00,
2013-01-09 13:48:00,43.8,33.2,30.03,WSW,254,15.0,37.0,66,0.00,,,-99.99,Weather View 32 v70,2013-01-09 18:48:00,
2013-01-09 13:53:00,43.6,33.0,30.04,WSW,251,11.0,37.0,66,0.00,,,-99.99,Weather View 32 v70,2013-01-09 18:53:00,
2013-01-09 13:58:00,43.5,32.9,30.04,SW,223,7.0,37.0,66,0.00,,,-99.99,Weather View 32 v70,2013-01-09 18:58:00,
2013-01-09 14:03:00,43.5,33.3,30.05,West,280,7.0,37.0,67,0.00,,,-99.99,Weather View 32 v70,2013-01-09 19:03:00,
2013-01-09 14:08:00,43.4,33.2,30.05,WSW,254,19.0,37.0,67,0.00,,,-99.99,Weather View 32 v70,2013-01-09 19:08:00,
2013-01-09 14:13:00,43.3,33.4,30.05,SW,219,14.0,33.0,68,0.00,,,-99.99,Weather View 32 v70,2013-01-09 19:13:00,
2013-01-09 14:18:00,43.2,33.3,30.06,WSW,250,12.0,30.0,68,0.00,,,-99.99,Weather View 32 v70,2013-01-09 19:18:00,
2013-01-09 14:23:00,43.1,33.2,30.05,West,265,9.0,30.0,68,0.00,,,-99.99,Weather View 32 v70,2013-01-09 19:23:00,
2013-01-09 14:28:00,42.9,33.1,30.06,West,261,8.0,30.0,68,0.00,,,-99.99,Weather View 32 v70,2013-01-09 19:28:00,
2013-01-09 14:33:00,42.8,33.0,30.06,SW,222,19.0,30.0,68,0.00,,,-99.99,Weather View 32 v70,2013-01-09 19:33:00,
2013-01-09 14:43:00,42.5,32.7,30.06,West,268,4.0,30.0,68,0.00,,,-99.99,Weather View 32 v70,2013-01-09 19:43:00,
2013-01-09 14:53:00,42.1,32.7,30.07,West,276,7.0,26.0,69,0.00,,,-99.99,Weather View 32 v70,2013-01-09 19:53:00,
2013-01-09 14:58:00,41.9,32.8,30.07,WSW,243,11.0,26.0,70,0.00,,,-99.99,Weather View 32 v70,2013-01-09 19:58:00,
2013-01-09 15:03:00,41.9,32.8,30.07,WSW,253,8.0,26.0,70,0.00,,,-99.99,Weather View 32 v70,2013-01-09 20:03:00,
2013-01-09 15:08:00,41.8,33.1,30.08,WSW,237,9.0,26.0,71,0.00,,,-99.99,Weather View 32 v70,2013-01-09 20:08:00,
2013-01-09 15:13:00,41.6,32.9,30.08,West,271,9.0,26.0,71,0.00,,,-99.99,Weather View 32 v70,2013-01-09 20:13:00,
2013-01-09 15:18:00,41.7,33.0,30.09,SW,233,4.0,26.0,71,0.00,,,-99.99,Weather View 32 v70,2013-01-09 20:18:00,
2013-01-09 15:28:00,41.4,33.0,30.09,WSW,246,10.0,25.0,72,0.00,,,-99.99,Weather View 32 v70,2013-01-09 20:28:00,
2013-01-09 15:33:00,41.3,32.9,30.10,SW,229,7.0,25.0,72,0.00,,,-99.99,Weather View 32 v70,2013-01-09 20:33:00,
2013-01-09 15:43:00,40.9,32.9,30.10,SW,221,12.0,25.0,73,0.00,,,-99.99,Weather View 32 v70,2013-01-09 20:43:00,
2013-01-09 15:48:00,40.8,32.8,30.11,WSW,241,10.0,25.0,73,0.00,,,-99.99,Weather View 32 v70,2013-01-09 20:48:00,
2013-01-09 15:58:00,40.5,32.9,30.10,SW,230,7.0,25.0,74,0.00,,,-99.99,Weather View 32 v70,2013-01-09 20:58:00,
2013-01-09 16:03:00,40.4,32.8,30.10,West,272,8.0,25.0,74,0.00,,,-99.99,Weather View 32 v70,2013-01-09 21:03:00,
2013-01-09 16:08:00,40.2,32.6,30.10,SW,229,10.0,25.0,74,0.00,,,-99.99,Weather View 32 v70,2013-01-09 21:08:00,
2013-01-09 16:18:00,39.9,32.6,30.11,SW,223,15.0,25.0,75,0.00,,,-99.99,Weather View 32 v70,2013-01-09 21:18:00,
2013-01-09 16:28:00,39.6,32.7,30.11,SW,232,10.0,25.0,76,0.00,,,-99.99,Weather View 32 v70,2013-01-09 21:28:00,
2013-01-09 16:38:00,39.3,32.4,30.11,West,268,7.0,25.0,76,0.00,,,-99.99,Weather View 32 v70,2013-01-09 21:38:00,
2013-01-09 16:43:00,39.2,32.6,30.11,WSW,253,3.0,23.0,77,0.00,,,-99.99,Weather View 32 v70,2013-01-09 21:43:00,
2013-01-09 16:48:00,39.1,32.5,30.12,SW,215,7.0,23.0,77,0.00,,,-99.99,Weather View 32 v70,2013-01-09 21:48:00,
2013-01-09 16:53:00,39.0,32.4,30.12,SW,228,4.0,23.0,77,0.00,,,-99.99,Weather View 32 v70,2013-01-09 21:53:00,
2013-01-09 16:58:00,39.0,32.4,30.12,WSW,238,12.0,23.0,77,0.00,,,-99.99,Weather View 32 v70,2013-01-09 21:58:00,
2013-01-09 17:08:00,38.8,32.2,30.12,SW,236,10.0,23.0,77,0.00,,,-99.99,Weather View 32 v70,2013-01-09 22:08:00,
2013-01-09 17:13:00,38.7,32.4,30.12,West,261,6.0,23.0,78,0.00,,,-99.99,Weather View 32 v70,2013-01-09 22:13:00,
2013-01-09 17:18:00,38.7,32.1,30.13,SW,224,7.0,23.0,77,0.00,,,-99.99,Weather View 32 v70,2013-01-09 22:18:00,
2013-01-09 17:28:00,38.6,32.0,30.14,WSW,239,5.0,23.0,77,0.00,,,-99.99,Weather View 32 v70,2013-01-09 22:28:00,
2013-01-09 17:33:00,38.6,32.0,30.14,SW,226,7.0,23.0,77,0.00,,,-99.99,Weather View 32 v70,2013-01-09 22:33:00,
2013-01-09 17:38:00,38.7,32.1,30.14,SW,221,10.0,23.0,77,0.00,,,-99.99,Weather View 32 v70,2013-01-09 22:38:00,
2013-01-09 17:45:00,38.7,32.1,30.14,WSW,237,7.0,23.0,77,0.00,,,-99.99,Weather View 32 v70,2013-01-09 22:45:00,
2013-01-09 17:53:00,38.7,31.8,30.15,SW,218,8.0,23.0,76,0.00,,,-99.99,Weather View 32 v70,2013-01-09 22:53:00,
2013-01-09 17:58:00,38.8,31.9,30.15,WSW,241,15.0,23.0,76,0.00,,,-99.99,Weather View 32 v70,2013-01-09 22:58:00,
2013-01-09 18:08:00,38.9,31.6,30.15,SW,228,13.0,23.0,75,0.00,,,-99.99,Weather View 32 v70,2013-01-09 23:08:00,
2013-01-09 18:13:00,38.9,31.3,30.16,SW,235,7.0,23.0,74,0.00,,,-99.99,Weather View 32 v70,2013-01-09 23:13:00,
2013-01-09 18:18:00,39.0,31.4,30.16,SW,225,8.0,23.0,74,0.00,,,-99.99,Weather View 32 v70,2013-01-09 23:18:00,
2013-01-09 18:23:00,39.0,31.1,30.16,WSW,246,19.0,23.0,73,0.00,,,-99.99,Weather View 32 v70,2013-01-09 23:23:00,
2013-01-09 18:33:00,38.9,31.3,30.16,SW,222,12.0,23.0,74,0.00,,,-99.99,Weather View 32 v70,2013-01-09 23:33:00,
2013-01-09 18:38:00,39.0,31.1,30.17,WSW,238,9.0,23.0,73,0.00,,,-99.99,Weather View 32 v70,2013-01-09 23:38:00,
2013-01-09 18:46:00,39.0,31.1,30.17,WSW,244,8.0,23.0,73,0.00,,,-99.99,Weather View 32 v70,2013-01-09 23:46:00,
2013-01-09 18:53:00,39.0,31.1,30.18,WSW,254,4.0,23.0,73,0.00,,,-99.99,Weather View 32 v70,2013-01-09 23:53:00,
2013-01-09 18:58:00,38.9,31.0,30.18,WSW,252,9.0,22.0,73,0.00,,,-99.99,Weather View 32 v70,2013-01-09 23:58:00,
2013-01-09 19:03:00,39.0,31.1,30.18,SW,222,8.0,22.0,73,0.00,,,-99.99,Weather View 32 v70,2013-01-10 00:03:00,
2013-01-09 19:08:00,38.9,31.0,30.18,WSW,252,11.0,22.0,73,0.00,,,-99.99,Weather View 32 v70,2013-01-10 00:08:00,
2013-01-09 19:18:00,38.8,31.2,30.20,West,260,5.0,22.0,74,0.00,,,-99.99,Weather View 32 v70,2013-01-10 00:18:00,
2013-01-09 19:23:00,38.8,31.2,30.20,SW,222,9.0,22.0,74,0.00,,,-99.99,Weather View 32 v70,2013-01-10 00:23:00,
2013-01-09 19:28:00,38.7,31.5,30.20,WSW,247,9.0,22.0,75,0.00,,,-99.99,Weather View 32 v70,2013-01-10 00:28:00,
2013-01-09 19:33:00,38.7,31.5,30.20,SW,225,13.0,22.0,75,0.00,,,-99.99,Weather View 32 v70,2013-01-10 00:33:00,
2013-01-09 19:43:00,38.6,31.4,30.21,WSW,243,10.0,20.0,75,0.00,,,-99.99,Weather View 32 v70,2013-01-10 00:43:00,
2013-01-09 19:48:00,38.5,31.3,30.22,WSW,254,7.0,20.0,75,0.00,,,-99.99,Weather View 32 v70,2013-01-10 00:48:00,
2013-01-09 19:53:00,38.6,31.7,30.22,SW,229,9.0,20.0,76,0.00,,,-99.99,Weather View 32 v70,2013-01-10 00:53:00,
2013-01-09 19:58:00,38.6,31.7,30.23,SW,214,9.0,20.0,76,0.00,,,-99.99,Weather View 32 v70,2013-01-10 00:58:00,
2013-01-09 20:08:00,38.5,31.3,30.23,SW,218,10.0,20.0,75,0.00,,,-99.99,Weather View 32 v70,2013-01-10 01:08:00,
2013-01-09 20:13:00,38.5,31.6,30.24,SW,227,6.0,20.0,76,0.00,,,-99.99,Weather View 32 v70,2013-01-10 01:13:00,
2013-01-09 20:18:00,38.4,31.5,30.25,SW,231,10.0,22.0,76,0.00,,,-99.99,Weather View 32 v70,2013-01-10 01:18:00,
2013-01-09 20:28:00,38.3,31.4,30.26,WSW,249,3.0,22.0,76,0.00,,,-99.99,Weather View 32 v70,2013-01-10 01:28:00,
2013-01-09 20:33:00,38.3,31.7,30.26,SW,223,8.0,22.0,77,0.00,,,-99.99,Weather View 32 v70,2013-01-10 01:33:00,
2013-01-09 20:38:00,38.2,31.3,30.26,SW,225,11.0,22.0,76,0.00,,,-99.99,Weather View 32 v70,2013-01-10 01:38:00,
2013-01-09 20:47:00,38.2,31.6,30.27,West,278,9.0,22.0,77,0.00,,,-99.99,Weather View 32 v70,2013-01-10 01:47:00,
2013-01-09 20:53:00,38.3,31.4,30.29,WSW,252,7.0,22.0,76,0.00,,,-99.99,Weather View 32 v70,2013-01-10 01:53:00,
2013-01-09 20:58:00,38.4,31.5,30.30,WSW,257,5.0,22.0,76,0.00,,,-99.99,Weather View 32 v70,2013-01-10 01:58:00,
2013-01-09 21:03:00,38.5,31.6,30.30,WSW,240,8.0,22.0,76,0.00,,,-99.99,Weather View 32 v70,2013-01-10 02:03:00,
2013-01-09 21:13:00,38.6,31.4,30.32,West,261,7.0,22.0,75,0.00,,,-99.99,Weather View 32 v70,2013-01-10 02:13:00,
2013-01-09 21:18:00,38.7,31.1,30.32,WSW,258,7.0,22.0,74,0.00,,,-99.99,Weather View 32 v70,2013-01-10 02:18:00,
2013-01-09 21:23:00,38.7,31.1,30.32,WNW,283,4.0,22.0,74,0.00,,,-99.99,Weather View 32 v70,2013-01-10 02:23:00,
2013-01-09 21:33:00,38.7,31.1,30.33,WNW,287,10.0,22.0,74,0.00,,,-99.99,Weather View 32 v70,2013-01-10 02:33:00,
2013-01-09 21:38:00,38.6,31.0,30.33,West,269,4.0,16.0,74,0.00,,,-99.99,Weather View 32 v70,2013-01-10 02:38:00,
2013-01-09 21:43:00,38.6,31.0,30.34,WNW,282,8.0,16.0,74,0.00,,,-99.99,Weather View 32 v70,2013-01-10 02:43:00,
2013-01-09 21:48:00,38.6,31.0,30.34,WNW,292,3.0,16.0,74,0.00,,,-99.99,Weather View 32 v70,2013-01-10 02:48:00,
2013-01-09 21:58:00,38.5,30.9,30.34,SW,230,6.0,16.0,74,0.00,,,-99.99,Weather View 32 v70,2013-01-10 02:58:00,
2013-01-09 22:08:00,38.4,30.5,30.35,WSW,253,2.0,16.0,73,0.00,,,-99.99,Weather View 32 v70,2013-01-10 03:08:00,
2013-01-09 22:13:00,38.3,30.1,30.35,WSW,256,7.0,19.0,72,0.00,,,-99.99,Weather View 32 v70,2013-01-10 03:13:00,
2013-01-09 22:23:00,38.2,30.0,30.35,WNW,290,5.0,19.0,72,0.00,,,-99.99,Weather View 32 v70,2013-01-10 03:23:00,
2013-01-09 22:28:00,38.2,30.0,30.36,WNW,286,4.0,19.0,72,0.00,,,-99.99,Weather View 32 v70,2013-01-10 03:28:00,
2013-01-09 22:33:00,38.2,30.0,30.36,WNW,298,6.0,19.0,72,0.00,,,-99.99,Weather View 32 v70,2013-01-10 03:33:00,
2013-01-09 22:38:00,38.1,29.9,30.37,WNW,302,4.0,19.0,72,0.00,,,-99.99,Weather View 32 v70,2013-01-10 03:38:00,
2013-01-09 22:48:00,38.0,29.1,30.37,WSW,251,4.0,19.0,70,0.00,,,-99.99,Weather View 32 v70,2013-01-10 03:48:00,
2013-01-09 22:53:00,38.0,29.1,30.37,West,259,7.0,19.0,70,0.00,,,-99.99,Weather View 32 v70,2013-01-10 03:53:00,
2013-01-09 22:58:00,37.9,29.0,30.37,WSW,250,6.0,19.0,70,0.00,,,-99.99,Weather View 32 v70,2013-01-10 03:58:00,
2013-01-09 23:08:00,37.9,28.6,30.37,WSW,249,4.0,19.0,69,0.00,,,-99.99,Weather View 32 v70,2013-01-10 04:08:00,
2013-01-09 23:13:00,37.9,28.6,30.37,West,280,2.0,12.0,69,0.00,,,-99.99,Weather View 32 v70,2013-01-10 04:13:00,
2013-01-09 23:18:00,37.8,28.5,30.38,West,260,8.0,12.0,69,0.00,,,-99.99,Weather View 32 v70,2013-01-10 04:18:00,
2013-01-09 23:28:00,37.8,28.5,30.38,WSW,244,5.0,12.0,69,0.00,,,-99.99,Weather View 32 v70,2013-01-10 04:28:00,
2013-01-09 23:33:00,37.8,28.2,30.39,West,271,3.0,12.0,68,0.00,,,-99.99,Weather View 32 v70,2013-01-10 04:33:00,
2013-01-09 23:38:00,37.8,28.2,30.40,WNW,286,8.0,12.0,68,0.00,,,-99.99,Weather View 32 v70,2013-01-10 04:38:00,
2013-01-09 23:48:00,37.7,27.7,30.40,WNW,295,6.0,12.0,67,0.00,,,-99.99,Weather View 32 v70,2013-01-10 04:48:00,
2013-01-09 23:58:00,37.6,27.6,30.41,WNW,298,3.0,12.0,67,0.00,,,-99.99,Weather View 32 v70,2013-01-10 04:58:00,